sensor_id;sensor_type;location;lat;lon;timestamp;temperature;humidity
14993;DHT22;7592;51.088;13.732;2023-02-28T00:01:28;1.80;99.90
14993;DHT22;7592;51.088;13.732;2023-02-28T00:06:21;1.90;99.90
14993;DHT22;7592;51.088;13.732;2023-02-28T00:11:14;1.70;99.90
14993;DHT22;7592;51.088;13.732;2023-02-28T00:16:10;1.60;99.90
14993;DHT22;7592;51.088;13.732;2023-02-28T00:21:02;1.60;99.90
14993;DHT22;7592;51.088;13.732;2023-02-28T00:25:55;1.40;99.90
14993;DHT22;7592;51.088;13.732;2023-02-28T00:30:47;1.20;99.90
14993;DHT22;7592;51.088;13.732;2023-02-28T00:35:39;1.10;99.90
14993;DHT22;7592;51.088;13.732;2023-02-28T00:40:33;1.10;99.90
14993;DHT22;7592;51.088;13.732;2023-02-28T00:45:25;1.10;99.90
14993;DHT22;7592;51.088;13.732;2023-02-28T00:50:18;1.00;99.90
14993;DHT22;7592;51.088;13.732;2023-02-28T00:55:11;1.00;99.90
14993;DHT22;7592;51.088;13.732;2023-02-28T01:00:04;0.90;99.90
14993;DHT22;7592;51.088;13.732;2023-02-28T01:04:56;1.00;99.90
14993;DHT22;7592;51.088;13.732;2023-02-28T01:09:48;1.00;99.90
14993;DHT22;7592;51.088;13.732;2023-02-28T01:14:41;0.80;99.90
14993;DHT22;7592;51.088;13.732;2023-02-28T01:19:34;0.70;99.90
14993;DHT22;7592;51.088;13.732;2023-02-28T01:24:27;0.70;99.90
14993;DHT22;7592;51.088;13.732;2023-02-28T01:29:19;0.80;99.90
14993;DHT22;7592;51.088;13.732;2023-02-28T01:34:11;0.90;99.90
14993;DHT22;7592;51.088;13.732;2023-02-28T01:39:05;0.80;99.90
14993;DHT22;7592;51.088;13.732;2023-02-28T01:49:13;0.60;99.90
14993;DHT22;7592;51.088;13.732;2023-02-28T01:54:13;0.60;99.90
14993;DHT22;7592;51.088;13.732;2023-02-28T01:59:06;0.70;99.90
14993;DHT22;7592;51.088;13.732;2023-02-28T02:04:01;0.60;99.90
14993;DHT22;7592;51.088;13.732;2023-02-28T02:15:10;0.80;99.90
14993;DHT22;7592;51.088;13.732;2023-02-28T02:25:36;0.70;99.90
14993;DHT22;7592;51.088;13.732;2023-02-28T02:35:50;0.50;99.90
14993;DHT22;7592;51.088;13.732;2023-02-28T02:41:33;0.60;99.90
14993;DHT22;7592;51.088;13.732;2023-02-28T02:46:20;0.50;99.90
14993;DHT22;7592;51.088;13.732;2023-02-28T02:51:16;0.40;99.90
14993;DHT22;7592;51.088;13.732;2023-02-28T02:56:10;0.30;99.90
14993;DHT22;7592;51.088;13.732;2023-02-28T03:01:05;0.30;99.90
14993;DHT22;7592;51.088;13.732;2023-02-28T03:05:59;0.20;99.90
14993;DHT22;7592;51.088;13.732;2023-02-28T03:10:56;0.20;99.90
14993;DHT22;7592;51.088;13.732;2023-02-28T03:26:22;-0.30;99.90
14993;DHT22;7592;51.088;13.732;2023-02-28T03:31:20;-0.40;99.90
14993;DHT22;7592;51.088;13.732;2023-02-28T03:36:17;-0.60;99.90
14993;DHT22;7592;51.088;13.732;2023-02-28T03:41:21;-0.70;99.90
14993;DHT22;7592;51.088;13.732;2023-02-28T03:46:17;-0.90;99.90
14993;DHT22;7592;51.088;13.732;2023-02-28T03:51:16;-1.10;99.90
14993;DHT22;7592;51.088;13.732;2023-02-28T03:56:20;-1.20;99.90
14993;DHT22;7592;51.088;13.732;2023-02-28T04:01:41;-1.30;99.90
14993;DHT22;7592;51.088;13.732;2023-02-28T04:06:34;-1.30;99.90
14993;DHT22;7592;51.088;13.732;2023-02-28T04:11:36;-1.20;99.90
14993;DHT22;7592;51.088;13.732;2023-02-28T04:16:30;-1.10;99.90
14993;DHT22;7592;51.088;13.732;2023-02-28T04:21:26;-1.30;99.90
14993;DHT22;7592;51.088;13.732;2023-02-28T04:26:18;-1.30;99.90
14993;DHT22;7592;51.088;13.732;2023-02-28T04:31:10;-1.30;99.90
14993;DHT22;7592;51.088;13.732;2023-02-28T04:36:05;-1.30;99.90
14993;DHT22;7592;51.088;13.732;2023-02-28T04:40:58;-1.40;99.90
14993;DHT22;7592;51.088;13.732;2023-02-28T04:45:51;-1.30;99.90
14993;DHT22;7592;51.088;13.732;2023-02-28T04:50:43;-1.30;99.90
14993;DHT22;7592;51.088;13.732;2023-02-28T04:55:35;-1.30;99.90
14993;DHT22;7592;51.088;13.732;2023-02-28T05:00:28;-1.30;99.90
14993;DHT22;7592;51.088;13.732;2023-02-28T05:05:20;-1.30;99.90
14993;DHT22;7592;51.088;13.732;2023-02-28T05:10:14;-1.40;99.90
14993;DHT22;7592;51.088;13.732;2023-02-28T05:15:06;-1.30;99.90
14993;DHT22;7592;51.088;13.732;2023-02-28T05:19:59;-1.40;99.90
14993;DHT22;7592;51.088;13.732;2023-02-28T05:25:06;-1.40;99.90
14993;DHT22;7592;51.088;13.732;2023-02-28T05:29:59;-1.50;99.90
14993;DHT22;7592;51.088;13.732;2023-02-28T05:34:51;-1.70;99.90
14993;DHT22;7592;51.088;13.732;2023-02-28T05:39:43;-1.90;99.90
14993;DHT22;7592;51.088;13.732;2023-02-28T05:44:35;-2.00;99.90
14993;DHT22;7592;51.088;13.732;2023-02-28T05:49:28;-1.80;99.90
14993;DHT22;7592;51.088;13.732;2023-02-28T05:54:20;-1.80;99.90
14993;DHT22;7592;51.088;13.732;2023-02-28T05:59:12;-1.90;99.90
14993;DHT22;7592;51.088;13.732;2023-02-28T06:04:07;-1.90;99.90
14993;DHT22;7592;51.088;13.732;2023-02-28T06:09:07;-1.90;99.90
14993;DHT22;7592;51.088;13.732;2023-02-28T06:14:00;-1.90;99.90
14993;DHT22;7592;51.088;13.732;2023-02-28T06:18:52;-1.80;99.90
14993;DHT22;7592;51.088;13.732;2023-02-28T06:23:47;-1.80;99.90
14993;DHT22;7592;51.088;13.732;2023-02-28T06:28:39;-1.70;99.90
14993;DHT22;7592;51.088;13.732;2023-02-28T06:33:31;-1.70;99.90
14993;DHT22;7592;51.088;13.732;2023-02-28T06:38:25;-1.60;99.90
14993;DHT22;7592;51.088;13.732;2023-02-28T06:43:17;-1.60;99.90
14993;DHT22;7592;51.088;13.732;2023-02-28T06:48:09;-1.40;99.90
14993;DHT22;7592;51.088;13.732;2023-02-28T06:53:02;-1.20;99.90
14993;DHT22;7592;51.088;13.732;2023-02-28T06:57:55;-0.90;99.90
14993;DHT22;7592;51.088;13.732;2023-02-28T07:02:47;-0.40;99.90
14993;DHT22;7592;51.088;13.732;2023-02-28T07:07:39;0.00;99.90
14993;DHT22;7592;51.088;13.732;2023-02-28T07:12:37;0.40;99.90
14993;DHT22;7592;51.088;13.732;2023-02-28T07:17:29;0.70;99.90
14993;DHT22;7592;51.088;13.732;2023-02-28T07:22:21;1.30;99.90
14993;DHT22;7592;51.088;13.732;2023-02-28T07:27:13;2.20;99.90
14993;DHT22;7592;51.088;13.732;2023-02-28T07:32:15;3.00;99.90
14993;DHT22;7592;51.088;13.732;2023-02-28T07:37:08;3.30;99.90
14993;DHT22;7592;51.088;13.732;2023-02-28T07:42:00;3.90;99.90
14993;DHT22;7592;51.088;13.732;2023-02-28T07:46:57;5.00;99.90
14993;DHT22;7592;51.088;13.732;2023-02-28T07:51:50;6.10;99.90
14993;DHT22;7592;51.088;13.732;2023-02-28T07:56:42;6.20;99.90
14993;DHT22;7592;51.088;13.732;2023-02-28T08:01:35;6.30;99.90
14993;DHT22;7592;51.088;13.732;2023-02-28T08:06:27;6.70;99.90
14993;DHT22;7592;51.088;13.732;2023-02-28T08:11:19;7.20;99.90
14993;DHT22;7592;51.088;13.732;2023-02-28T08:16:12;7.40;99.90
14993;DHT22;7592;51.088;13.732;2023-02-28T08:21:13;8.50;99.90
14993;DHT22;7592;51.088;13.732;2023-02-28T08:26:05;10.60;99.10
14993;DHT22;7592;51.088;13.732;2023-02-28T08:30:58;10.10;95.90
14993;DHT22;7592;51.088;13.732;2023-02-28T08:35:54;8.90;98.20
14993;DHT22;7592;51.088;13.732;2023-02-28T08:40:47;7.90;99.90
14993;DHT22;7592;51.088;13.732;2023-02-28T08:45:39;7.40;99.90
14993;DHT22;7592;51.088;13.732;2023-02-28T08:50:31;7.10;99.90
14993;DHT22;7592;51.088;13.732;2023-02-28T08:55:23;7.10;99.90
14993;DHT22;7592;51.088;13.732;2023-02-28T09:00:16;7.00;99.90
14993;DHT22;7592;51.088;13.732;2023-02-28T09:05:08;7.50;99.90
14993;DHT22;7592;51.088;13.732;2023-02-28T09:10:00;8.10;99.20
14993;DHT22;7592;51.088;13.732;2023-02-28T09:14:54;7.40;96.80
14993;DHT22;7592;51.088;13.732;2023-02-28T09:19:48;6.90;97.10
14993;DHT22;7592;51.088;13.732;2023-02-28T09:24:40;7.10;97.90
14993;DHT22;7592;51.088;13.732;2023-02-28T09:29:33;7.20;95.00
14993;DHT22;7592;51.088;13.732;2023-02-28T09:34:26;8.40;93.10
14993;DHT22;7592;51.088;13.732;2023-02-28T09:39:18;9.00;92.20
14993;DHT22;7592;51.088;13.732;2023-02-28T09:44:14;9.70;89.60
14993;DHT22;7592;51.088;13.732;2023-02-28T09:49:15;10.20;85.20
14993;DHT22;7592;51.088;13.732;2023-02-28T09:54:14;10.30;84.70
14993;DHT22;7592;51.088;13.732;2023-02-28T09:59:29;11.80;76.10
14993;DHT22;7592;51.088;13.732;2023-02-28T10:09:37;9.50;82.50
14993;DHT22;7592;51.088;13.732;2023-02-28T10:14:32;12.30;70.40
14993;DHT22;7592;51.088;13.732;2023-02-28T10:24:44;9.30;78.00
14993;DHT22;7592;51.088;13.732;2023-02-28T10:29:44;7.80;81.30
14993;DHT22;7592;51.088;13.732;2023-02-28T10:34:37;7.70;83.10
14993;DHT22;7592;51.088;13.732;2023-02-28T10:44:28;9.10;77.70
14993;DHT22;7592;51.088;13.732;2023-02-28T10:49:23;8.20;79.00
14993;DHT22;7592;51.088;13.732;2023-02-28T10:54:28;7.50;81.40
14993;DHT22;7592;51.088;13.732;2023-02-28T10:59:29;6.60;86.30
14993;DHT22;7592;51.088;13.732;2023-02-28T11:09:34;7.20;87.70
14993;DHT22;7592;51.088;13.732;2023-02-28T11:14:35;7.70;84.80
14993;DHT22;7592;51.088;13.732;2023-02-28T11:19:40;8.10;85.80
14993;DHT22;7592;51.088;13.732;2023-02-28T11:24:39;10.50;77.10
14993;DHT22;7592;51.088;13.732;2023-02-28T11:29:33;12.00;71.00
14993;DHT22;7592;51.088;13.732;2023-02-28T11:34:29;11.10;71.10
14993;DHT22;7592;51.088;13.732;2023-02-28T11:39:21;11.30;68.90
14993;DHT22;7592;51.088;13.732;2023-02-28T11:55:12;13.20;63.70
14993;DHT22;7592;51.088;13.732;2023-02-28T11:59:51;12.10;64.90
14993;DHT22;7592;51.088;13.732;2023-02-28T12:30:21;6.70;84.70
14993;DHT22;7592;51.088;13.732;2023-02-28T12:35:21;6.60;86.90
14993;DHT22;7592;51.088;13.732;2023-02-28T12:45:48;6.50;87.10
14993;DHT22;7592;51.088;13.732;2023-02-28T12:50:42;6.00;89.30
14993;DHT22;7592;51.088;13.732;2023-02-28T13:01:17;5.90;90.60
14993;DHT22;7592;51.088;13.732;2023-02-28T13:06:33;5.80;91.20
14993;DHT22;7592;51.088;13.732;2023-02-28T13:21:47;5.60;91.40
14993;DHT22;7592;51.088;13.732;2023-02-28T13:47:24;4.90;94.50
14993;DHT22;7592;51.088;13.732;2023-02-28T13:52:22;4.80;95.80
14993;DHT22;7592;51.088;13.732;2023-02-28T14:07:51;4.80;97.10
14993;DHT22;7592;51.088;13.732;2023-02-28T14:17:54;5.10;98.40
14993;DHT22;7592;51.088;13.732;2023-02-28T14:27:58;5.30;97.40
14993;DHT22;7592;51.088;13.732;2023-02-28T14:38:18;5.00;99.80
14993;DHT22;7592;51.088;13.732;2023-02-28T14:43:26;5.00;99.90
14993;DHT22;7592;51.088;13.732;2023-02-28T14:48:19;5.00;99.90
14993;DHT22;7592;51.088;13.732;2023-02-28T14:53:18;4.90;99.90
14993;DHT22;7592;51.088;13.732;2023-02-28T14:58:28;4.80;99.90
14993;DHT22;7592;51.088;13.732;2023-02-28T15:03:31;4.90;99.90
14993;DHT22;7592;51.088;13.732;2023-02-28T15:08:24;4.80;99.90
14993;DHT22;7592;51.088;13.732;2023-02-28T15:13:16;4.60;99.90
14993;DHT22;7592;51.088;13.732;2023-02-28T15:23:26;4.60;99.90
14993;DHT22;7592;51.088;13.732;2023-02-28T15:28:20;4.40;99.90
14993;DHT22;7592;51.088;13.732;2023-02-28T15:38:25;4.30;99.90
14993;DHT22;7592;51.088;13.732;2023-02-28T15:48:27;4.10;99.90
14993;DHT22;7592;51.088;13.732;2023-02-28T15:53:24;4.10;99.90
14993;DHT22;7592;51.088;13.732;2023-02-28T15:58:17;3.90;99.90
14993;DHT22;7592;51.088;13.732;2023-02-28T16:03:27;4.00;99.90
14993;DHT22;7592;51.088;13.732;2023-02-28T16:08:19;3.90;99.90
14993;DHT22;7592;51.088;13.732;2023-02-28T16:13:12;3.80;99.90
14993;DHT22;7592;51.088;13.732;2023-02-28T16:18:10;3.70;99.90
14993;DHT22;7592;51.088;13.732;2023-02-28T16:23:03;3.50;99.90
14993;DHT22;7592;51.088;13.732;2023-02-28T16:27:55;3.50;99.90
14993;DHT22;7592;51.088;13.732;2023-02-28T16:32:49;3.40;99.90
14993;DHT22;7592;51.088;13.732;2023-02-28T16:37:42;3.30;99.90
14993;DHT22;7592;51.088;13.732;2023-02-28T16:42:34;3.10;99.90
14993;DHT22;7592;51.088;13.732;2023-02-28T16:47:26;2.80;99.90
14993;DHT22;7592;51.088;13.732;2023-02-28T16:52:18;2.50;99.90
14993;DHT22;7592;51.088;13.732;2023-02-28T16:57:19;2.30;99.90
14993;DHT22;7592;51.088;13.732;2023-02-28T17:02:14;2.10;99.90
14993;DHT22;7592;51.088;13.732;2023-02-28T17:07:12;1.90;99.90
14993;DHT22;7592;51.088;13.732;2023-02-28T17:12:05;1.70;99.90
14993;DHT22;7592;51.088;13.732;2023-02-28T17:16:57;1.60;99.90
14993;DHT22;7592;51.088;13.732;2023-02-28T17:21:52;1.50;99.90
14993;DHT22;7592;51.088;13.732;2023-02-28T17:26:45;1.40;99.90
14993;DHT22;7592;51.088;13.732;2023-02-28T17:31:37;1.30;99.90
14993;DHT22;7592;51.088;13.732;2023-02-28T17:36:32;1.20;99.90
14993;DHT22;7592;51.088;13.732;2023-02-28T17:41:25;1.20;99.90
14993;DHT22;7592;51.088;13.732;2023-02-28T17:46:20;1.20;99.90
14993;DHT22;7592;51.088;13.732;2023-02-28T17:51:14;1.00;99.90
14993;DHT22;7592;51.088;13.732;2023-02-28T17:56:11;0.90;99.90
14993;DHT22;7592;51.088;13.732;2023-02-28T18:01:05;0.80;99.90
14993;DHT22;7592;51.088;13.732;2023-02-28T18:05:58;0.60;99.90
14993;DHT22;7592;51.088;13.732;2023-02-28T18:10:50;0.50;99.90
14993;DHT22;7592;51.088;13.732;2023-02-28T18:15:42;0.50;99.90
14993;DHT22;7592;51.088;13.732;2023-02-28T18:20:35;0.40;99.90
14993;DHT22;7592;51.088;13.732;2023-02-28T18:25:27;0.30;99.90
14993;DHT22;7592;51.088;13.732;2023-02-28T18:30:20;0.40;99.90
14993;DHT22;7592;51.088;13.732;2023-02-28T18:35:13;0.30;99.90
14993;DHT22;7592;51.088;13.732;2023-02-28T18:40:05;0.10;99.90
14993;DHT22;7592;51.088;13.732;2023-02-28T18:44:57;0.00;99.90
14993;DHT22;7592;51.088;13.732;2023-02-28T18:49:49;-0.10;99.90
14993;DHT22;7592;51.088;13.732;2023-02-28T18:54:41;-0.20;99.90
14993;DHT22;7592;51.088;13.732;2023-02-28T18:59:33;-0.10;99.90
14993;DHT22;7592;51.088;13.732;2023-02-28T19:04:25;-0.20;99.90
14993;DHT22;7592;51.088;13.732;2023-02-28T19:09:17;-0.30;99.90
14993;DHT22;7592;51.088;13.732;2023-02-28T19:14:10;-0.40;99.90
14993;DHT22;7592;51.088;13.732;2023-02-28T19:19:02;-0.50;99.90
14993;DHT22;7592;51.088;13.732;2023-02-28T19:23:54;-0.50;99.90
14993;DHT22;7592;51.088;13.732;2023-02-28T19:28:46;-0.60;99.90
14993;DHT22;7592;51.088;13.732;2023-02-28T19:33:38;-0.60;99.90
14993;DHT22;7592;51.088;13.732;2023-02-28T19:38:30;-0.70;99.90
14993;DHT22;7592;51.088;13.732;2023-02-28T19:43:22;-0.80;99.90
14993;DHT22;7592;51.088;13.732;2023-02-28T19:48:15;-0.80;99.90
14993;DHT22;7592;51.088;13.732;2023-02-28T19:53:07;-0.80;99.90
14993;DHT22;7592;51.088;13.732;2023-02-28T19:57:59;-0.90;99.90
14993;DHT22;7592;51.088;13.732;2023-02-28T20:02:51;-0.90;99.90
14993;DHT22;7592;51.088;13.732;2023-02-28T20:07:43;-0.70;99.90
14993;DHT22;7592;51.088;13.732;2023-02-28T20:12:35;-0.80;99.90
14993;DHT22;7592;51.088;13.732;2023-02-28T20:17:28;-0.80;99.90
14993;DHT22;7592;51.088;13.732;2023-02-28T20:22:21;-0.80;99.90
14993;DHT22;7592;51.088;13.732;2023-02-28T20:27:13;-0.70;99.90
14993;DHT22;7592;51.088;13.732;2023-02-28T20:32:05;-0.70;99.90
14993;DHT22;7592;51.088;13.732;2023-02-28T20:36:59;-0.70;99.90
14993;DHT22;7592;51.088;13.732;2023-02-28T20:41:51;-0.70;99.90
14993;DHT22;7592;51.088;13.732;2023-02-28T20:46:43;-0.70;99.90
14993;DHT22;7592;51.088;13.732;2023-02-28T20:51:35;-0.60;99.90
14993;DHT22;7592;51.088;13.732;2023-02-28T20:56:30;-0.70;99.90
14993;DHT22;7592;51.088;13.732;2023-02-28T21:01:24;-0.90;99.90
14993;DHT22;7592;51.088;13.732;2023-02-28T21:06:18;-0.90;99.90
14993;DHT22;7592;51.088;13.732;2023-02-28T21:11:13;-0.90;99.90
14993;DHT22;7592;51.088;13.732;2023-02-28T21:16:10;-1.00;99.90
14993;DHT22;7592;51.088;13.732;2023-02-28T21:21:05;-1.00;99.90
14993;DHT22;7592;51.088;13.732;2023-02-28T21:26:05;-1.00;99.90
14993;DHT22;7592;51.088;13.732;2023-02-28T21:31:03;-1.10;99.90
14993;DHT22;7592;51.088;13.732;2023-02-28T21:36:16;-1.40;99.90
14993;DHT22;7592;51.088;13.732;2023-02-28T21:41:11;-1.50;99.90
14993;DHT22;7592;51.088;13.732;2023-02-28T21:46:06;-1.60;99.90
14993;DHT22;7592;51.088;13.732;2023-02-28T21:51:05;-1.50;99.90
14993;DHT22;7592;51.088;13.732;2023-02-28T21:56:05;-1.50;99.90
14993;DHT22;7592;51.088;13.732;2023-02-28T22:01:14;-1.60;99.90
14993;DHT22;7592;51.088;13.732;2023-02-28T22:06:20;-1.70;99.90
14993;DHT22;7592;51.088;13.732;2023-02-28T22:11:16;-1.80;99.90
14993;DHT22;7592;51.088;13.732;2023-02-28T22:16:10;-1.90;99.90
14993;DHT22;7592;51.088;13.732;2023-02-28T22:21:04;-2.00;99.90
14993;DHT22;7592;51.088;13.732;2023-02-28T22:25:59;-1.90;99.90
14993;DHT22;7592;51.088;13.732;2023-02-28T22:30:51;-2.00;99.90
14993;DHT22;7592;51.088;13.732;2023-02-28T22:35:43;-2.00;99.90
14993;DHT22;7592;51.088;13.732;2023-02-28T22:40:36;-2.10;99.90
14993;DHT22;7592;51.088;13.732;2023-02-28T22:45:28;-2.10;99.90
14993;DHT22;7592;51.088;13.732;2023-02-28T22:50:20;-2.10;99.90
14993;DHT22;7592;51.088;13.732;2023-02-28T22:55:12;-2.10;99.90
14993;DHT22;7592;51.088;13.732;2023-02-28T23:00:07;-2.20;99.90
14993;DHT22;7592;51.088;13.732;2023-02-28T23:05:00;-2.20;99.90
14993;DHT22;7592;51.088;13.732;2023-02-28T23:09:55;-2.20;99.90
14993;DHT22;7592;51.088;13.732;2023-02-28T23:14:47;-2.20;99.90
14993;DHT22;7592;51.088;13.732;2023-02-28T23:19:39;-2.30;99.90
14993;DHT22;7592;51.088;13.732;2023-02-28T23:24:32;-2.30;99.90
14993;DHT22;7592;51.088;13.732;2023-02-28T23:29:25;-2.40;99.90
14993;DHT22;7592;51.088;13.732;2023-02-28T23:34:18;-2.30;99.90
14993;DHT22;7592;51.088;13.732;2023-02-28T23:39:18;-2.20;99.90
14993;DHT22;7592;51.088;13.732;2023-02-28T23:44:10;-2.30;99.90
14993;DHT22;7592;51.088;13.732;2023-02-28T23:49:04;-2.40;99.90
14993;DHT22;7592;51.088;13.732;2023-02-28T23:53:56;-2.40;99.90
14993;DHT22;7592;51.088;13.732;2023-02-28T23:58:49;-2.40;99.90
